Time;durP1;ratioP1;P1;durP2;ratioP2;P2;SDS_P1;SDS_P2;PMS_P1;PMS_P2;Temp;Humidity;BMP_temperature;BMP_pressure;BME280_temperature;BME280_humidity;BME280_pressure;Samples;Min_cycle;Max_cycle;Signal;HPM_P1;HPM_P2
2021/04/16 00:01:48;;;;;;;18.95;12.35;;;;;;;8.60;78.92;101399.02;1757767;80;21218;-72
2021/04/16 00:04:21;;;;;;;17.67;11.50;;;;;;;8.59;78.83;101394.56;1758310;81;21715;-72
2021/04/16 00:06:55;;;;;;;14.80;10.32;;;;;;;8.57;78.82;101399.46;1758626;81;21845;-73
2021/04/16 00:09:28;;;;;;;16.05;11.22;;;;;;;8.56;78.87;101391.41;1709871;84;21838;-75
2021/04/16 00:12:01;;;;;;;18.85;11.33;;;;;;;8.56;78.97;101390.86;1746706;82;21396;-73
2021/04/16 00:14:34;;;;;;;14.23;10.23;;;;;;;8.59;78.91;101379.87;1746910;82;21752;-73
2021/04/16 00:17:07;;;;;;;15.18;9.70;;;;;;;8.61;78.83;101389.63;1746764;82;21627;-75
2021/04/16 00:19:41;;;;;;;13.38;8.85;;;;;;;8.56;78.67;101395.56;1746879;82;21222;-74
2021/04/16 00:22:14;;;;;;;12.05;8.78;;;;;;;8.52;78.56;101386.02;1746883;82;21364;-73
2021/04/16 00:24:47;;;;;;;14.30;8.55;;;;;;;8.48;78.60;101387.55;1746697;82;21344;-72
2021/04/16 00:27:21;;;;;;;13.93;9.30;;;;;;;8.50;78.68;101387.62;1746795;82;21731;-74
2021/04/16 00:29:53;;;;;;;13.48;9.98;;;;;;;8.57;78.68;101390.34;1746694;82;21322;-73
2021/04/16 00:32:26;;;;;;;11.57;8.95;;;;;;;8.61;78.46;101391.02;1746849;82;21340;-73
2021/04/16 00:35:01;;;;;;;11.10;8.25;;;;;;;8.64;78.24;101400.78;1746646;82;21222;-72
2021/04/16 00:37:34;;;;;;;10.70;8.10;;;;;;;8.63;78.24;101397.72;1746833;82;21357;-72
2021/04/16 00:40:11;;;;;;;13.80;9.95;;;;;;;8.64;78.31;101400.78;1746615;82;21270;-75
2021/04/16 00:42:56;;;;;;;15.50;10.65;;;;;;;8.61;78.34;101400.70;1746691;82;21376;-71
2021/04/16 00:45:30;;;;;;;17.30;10.75;;;;;;;8.61;78.46;101399.84;1731969;82;21340;-75
2021/04/16 00:48:05;;;;;;;14.58;10.25;;;;;;;8.61;78.41;101411.78;1782655;80;21896;-73
2021/04/16 00:50:50;;;;;;;17.17;12.70;;;;;;;8.59;78.39;101412.55;1721313;82;21368;-73
2021/04/16 00:53:23;;;;;;;17.45;12.18;;;;;;;8.56;78.32;101410.23;1777419;81;21190;-72
2021/04/16 00:55:56;;;;;;;17.05;11.78;;;;;;;8.56;78.42;101399.72;1772873;81;21242;-73
2021/04/16 00:58:31;;;;;;;14.33;8.98;;;;;;;8.53;78.22;101403.79;1769592;80;21175;-73
2021/04/16 01:01:04;;;;;;;10.75;7.87;;;;;;;8.51;78.15;101412.01;1769054;81;21375;-75
2021/04/16 01:03:38;;;;;;;11.65;8.30;;;;;;;8.47;78.08;101406.09;1769216;81;21356;-74
2021/04/16 01:06:12;;;;;;;12.53;9.03;;;;;;;8.46;78.05;101407.70;1769306;80;21167;-73
2021/04/16 01:08:45;;;;;;;;;;;;;;;8.47;78.18;101406.09;1771841;80;21245;-73
2021/04/16 01:11:17;;;;;;;11.22;8.03;;;;;;;8.52;78.17;101402.63;1769047;81;20584;-72
2021/04/16 01:13:50;;;;;;;8.38;6.42;;;;;;;8.50;77.99;101403.41;1782487;79;21153;-72
2021/04/16 01:16:28;;;;;;;9.80;6.73;;;;;;;8.47;77.83;101405.23;1795648;80;21646;-71
2021/04/16 01:19:01;;;;;;;12.70;7.97;;;;;;;8.43;77.89;101399.83;1792930;80;21201;-71
2021/04/16 01:21:45;;;;;;;9.58;7.30;;;;;;;8.45;77.97;101403.23;1780719;80;21237;-73
2021/04/16 01:24:30;;;;;;;11.60;7.50;;;;;;;8.47;77.80;101395.55;1795866;80;21165;-73
2021/04/16 01:27:12;;;;;;;9.10;6.95;;;;;;;8.44;77.73;101391.31;1780328;79;21435;-71
2021/04/16 01:29:47;;;;;;;10.32;7.10;;;;;;;8.43;77.67;101385.48;1739000;82;21688;-72
2021/04/16 01:32:31;;;;;;;11.93;6.85;;;;;;;8.39;77.61;101388.38;1749778;80;21189;-74
2021/04/16 01:35:11;;;;;;;16.25;9.88;;;;;;;8.38;77.71;101389.47;1773284;79;21819;-73
2021/04/16 01:37:44;;;;;;;12.95;9.75;;;;;;;8.36;77.64;101387.47;1765859;80;21222;-70
2021/04/16 01:40:17;;;;;;;13.90;10.07;;;;;;;8.40;77.97;101391.45;1797561;80;21209;-73
2021/04/16 01:42:51;;;;;;;13.30;9.20;;;;;;;8.48;77.76;101395.33;1777397;80;21179;-73
2021/04/16 01:45:27;;;;;;;12.85;8.43;;;;;;;8.50;77.57;101389.01;1791944;79;21240;-73
2021/04/16 01:48:01;;;;;;;13.93;8.43;;;;;;;8.46;77.34;101389.70;1784168;80;21208;-74
2021/04/16 01:50:33;;;;;;;13.58;9.35;;;;;;;8.38;77.34;101395.00;1769427;80;21313;-72
2021/04/16 01:53:07;;;;;;;13.78;9.88;;;;;;;8.28;77.31;101393.84;1795128;80;21202;-76
2021/04/16 01:55:40;;;;;;;13.53;9.03;;;;;;;8.22;77.41;101394.75;1795494;80;21210;-73
2021/04/16 01:58:13;;;;;;;13.80;8.65;;;;;;;8.18;77.66;101397.62;1794796;80;21306;-74
2021/04/16 02:00:46;;;;;;;11.83;8.68;;;;;;;8.16;77.64;101400.64;1795406;80;21185;-72
2021/04/16 02:03:20;;;;;;;11.20;8.65;;;;;;;8.15;77.70;101400.30;1795126;80;21202;-72
2021/04/16 02:05:55;;;;;;;11.70;8.10;;;;;;;8.17;77.73;101400.94;1755158;81;21185;-72
2021/04/16 02:08:27;;;;;;;12.40;8.33;;;;;;;8.17;77.58;101402.32;1795569;80;21394;-73
2021/04/16 02:11:00;;;;;;;12.47;8.58;;;;;;;8.14;77.42;101406.91;1795484;80;21289;-74
2021/04/16 02:13:33;;;;;;;13.28;8.03;;;;;;;8.04;77.39;101408.50;1795349;78;21162;-72
2021/04/16 02:16:07;;;;;;;10.50;8.08;;;;;;;7.94;77.48;101409.02;1795298;80;21711;-73
2021/04/16 02:18:40;;;;;;;13.15;8.45;;;;;;;7.86;77.64;101403.78;1795447;80;21185;-72
2021/04/16 02:21:14;;;;;;;10.45;8.13;;;;;;;7.81;77.91;101407.75;1795537;80;21198;-72
2021/04/16 02:23:46;;;;;;;12.95;9.43;;;;;;;7.77;78.06;101404.28;1795010;80;21292;-73
2021/04/16 02:26:19;;;;;;;14.18;9.35;;;;;;;7.75;78.38;101403.12;1755352;80;21356;-72
2021/04/16 02:28:51;;;;;;;11.70;9.40;;;;;;;7.80;78.52;101410.20;1795648;80;21308;-73
2021/04/16 02:31:24;;;;;;;13.80;8.63;;;;;;;7.82;78.50;101405.81;1754997;81;21199;-73
2021/04/16 02:33:56;;;;;;;12.23;8.20;;;;;;;7.88;78.48;101400.77;1795446;80;21687;-72
2021/04/16 02:36:29;;;;;;;12.45;7.60;;;;;;;7.88;78.30;101401.62;1794481;80;21593;-71
2021/04/16 02:39:04;;;;;;;11.97;8.55;;;;;;;7.85;78.33;101407.59;1793768;80;21337;-73
2021/04/16 02:41:36;;;;;;;12.93;8.73;;;;;;;7.79;78.36;101408.48;1795515;80;21667;-71
2021/04/16 02:44:09;;;;;;;15.47;8.93;;;;;;;7.73;78.33;101419.06;1795667;80;21166;-71
2021/04/16 02:46:43;;;;;;;13.98;7.92;;;;;;;7.65;78.43;101416.58;1795491;80;21958;-73
2021/04/16 02:49:17;;;;;;;11.45;8.45;;;;;;;7.61;78.52;101416.73;1795419;80;21680;-71
2021/04/16 02:51:50;;;;;;;10.85;7.67;;;;;;;7.60;78.61;101414.19;1794128;80;21230;-72
2021/04/16 02:54:23;;;;;;;13.53;8.67;;;;;;;7.61;78.79;101408.45;1793962;78;21858;-74
2021/04/16 02:56:56;;;;;;;11.33;8.30;;;;;;;7.62;78.69;101408.75;1793852;80;21396;-72
2021/04/16 02:59:30;;;;;;;15.50;8.38;;;;;;;7.58;78.60;101410.26;1793762;80;21913;-73
2021/04/16 03:02:04;;;;;;;9.78;6.83;;;;;;;7.50;78.72;101409.16;1793811;80;21409;-73
2021/04/16 03:04:36;;;;;;;;;;;;;;;7.46;78.81;101413.95;1796501;80;21162;-73
2021/04/16 03:07:08;;;;;;;10.13;7.67;;;;;;;7.41;78.86;101424.29;1793756;80;20249;-71
2021/04/16 03:09:41;;;;;;;12.45;6.95;;;;;;;7.36;78.98;101413.61;1794581;80;21201;-72
2021/04/16 03:12:15;;;;;;;12.00;6.97;;;;;;;7.33;79.04;101423.18;1793992;80;21372;-72
2021/04/16 03:14:47;;;;;;;10.15;6.95;;;;;;;7.28;79.06;101434.03;1794044;80;21478;-74
2021/04/16 03:17:20;;;;;;;8.58;6.12;;;;;;;7.25;79.13;101439.16;1795505;80;21896;-73
2021/04/16 03:19:54;;;;;;;14.63;6.60;;;;;;;7.28;79.31;101439.25;1795371;80;21221;-73
2021/04/16 03:22:27;;;;;;;12.78;6.78;;;;;;;7.30;79.38;101442.94;1794540;80;21174;-74
2021/04/16 03:24:59;;;;;;;11.68;7.15;;;;;;;7.33;79.35;101441.66;1794297;80;21657;-70
2021/04/16 03:27:32;;;;;;;11.00;7.05;;;;;;;7.35;79.28;101440.92;1793874;80;21819;-71
2021/04/16 03:30:07;;;;;;;8.43;6.40;;;;;;;7.36;79.26;101445.37;1794557;80;21170;-71
2021/04/16 03:32:39;;;;;;;9.45;6.15;;;;;;;7.39;79.23;101447.15;1793875;80;21182;-70
2021/04/16 03:35:13;;;;;;;8.83;6.00;;;;;;;7.42;79.08;101439.78;1793921;80;21222;-71
2021/04/16 03:37:46;;;;;;;11.22;7.15;;;;;;;7.41;79.01;101451.08;1795646;80;21162;-72
2021/04/16 03:40:24;;;;;;;10.08;6.67;;;;;;;7.41;79.04;101453.29;1793751;80;21349;-73
2021/04/16 03:42:57;;;;;;;13.22;6.33;;;;;;;7.41;78.96;101450.53;1794029;80;21258;-70
2021/04/16 03:45:29;;;;;;;9.85;5.65;;;;;;;7.42;78.89;101442.55;1795457;80;21193;-71
2021/04/16 03:48:02;;;;;;;10.10;6.50;;;;;;;7.47;79.00;101450.20;1795755;80;21181;-70
2021/04/16 03:50:36;;;;;;;11.15;6.50;;;;;;;7.52;79.17;101452.59;1799573;79;21158;-71
2021/04/16 03:53:09;;;;;;;12.47;8.20;;;;;;;7.52;78.87;101451.21;1803539;79;21421;-72
2021/04/16 03:55:42;;;;;;;10.78;7.33;;;;;;;7.49;78.60;101453.05;1801576;79;21823;-74
2021/04/16 03:58:15;;;;;;;10.48;6.50;;;;;;;7.52;78.62;101447.59;1802706;79;21320;-74
2021/04/16 04:00:47;;;;;;;13.88;7.05;;;;;;;7.57;78.49;101455.55;1802621;79;21948;-72
2021/04/16 04:03:20;;;;;;;11.28;6.62;;;;;;;7.62;78.33;101450.72;1797322;79;21451;-74
2021/04/16 04:05:54;;;;;;;11.75;7.28;;;;;;;7.68;78.20;101459.50;1801651;79;21703;-73
2021/04/16 04:08:27;;;;;;;16.50;6.83;;;;;;;7.74;77.91;101462.75;1799609;79;21877;-72
2021/04/16 04:11:01;;;;;;;8.25;5.62;;;;;;;7.79;77.87;101455.48;1793079;79;21707;-79
2021/04/16 04:13:33;;;;;;;9.43;5.17;;;;;;;7.89;77.86;101452.25;1799864;79;21237;-70
2021/04/16 04:16:08;;;;;;;6.72;4.55;;;;;;;8.12;77.23;101452.45;1802706;79;21176;-69
2021/04/16 04:18:42;;;;;;;9.33;5.35;;;;;;;8.47;76.84;101460.57;1802572;79;21392;-74
2021/04/16 04:21:14;;;;;;;11.68;4.85;;;;;;;8.88;76.40;101456.06;1801837;79;21817;-69
2021/04/16 04:23:47;;;;;;;10.25;5.17;;;;;;;9.27;75.55;101462.52;1803101;79;21281;-72
2021/04/16 04:26:20;;;;;;;8.28;4.78;;;;;;;9.48;74.09;101467.54;1802439;79;21332;-70
2021/04/16 04:28:53;;;;;;;8.58;4.42;;;;;;;9.50;72.65;101472.34;1800154;79;21159;-69
2021/04/16 04:31:27;;;;;;;10.68;4.97;;;;;;;9.41;71.92;101483.95;1787304;79;21771;-72
2021/04/16 04:34:00;;;;;;;14.58;6.62;;;;;;;9.35;71.76;101484.87;1797588;79;21432;-70
2021/04/16 04:36:32;;;;;;;6.70;5.03;;;;;;;9.45;71.99;101488.81;1791254;79;21290;-71
2021/04/16 04:39:06;;;;;;;6.87;4.78;;;;;;;9.63;71.42;101489.30;1793634;79;21317;-71
2021/04/16 04:41:40;;;;;;;7.20;4.62;;;;;;;9.80;71.04;101492.55;1793500;79;21380;-72
2021/04/16 04:44:12;;;;;;;11.30;4.70;;;;;;;9.88;70.36;101488.61;1790959;79;21391;-75
2021/04/16 04:46:46;;;;;;;17.92;3.95;;;;;;;9.86;69.76;101490.22;1789630;79;21766;-70
2021/04/16 04:49:28;;;;;;;6.85;3.55;;;;;;;9.88;69.54;101492.77;1790709;79;21344;-66
2021/04/16 04:52:17;;;;;;;5.80;3.85;;;;;;;9.93;69.24;101502.09;1783938;79;21831;-72
2021/04/16 04:54:53;;;;;;;8.00;4.37;;;;;;;9.77;68.66;101498.59;1724418;82;21364;-72
2021/04/16 04:57:27;;;;;;;9.00;5.03;;;;;;;9.53;68.98;101500.95;1775811;80;21179;-71
2021/04/16 04:59:59;;;;;;;9.18;5.50;;;;;;;9.34;69.26;101506.22;1774592;79;21740;-71
2021/04/16 05:02:32;;;;;;;8.75;5.30;;;;;;;9.20;70.01;101505.23;1772934;79;21321;-72
2021/04/16 05:05:23;;;;;;;7.62;4.60;;;;;;;9.20;70.63;101508.86;1776332;79;21922;-73
2021/04/16 05:07:56;;;;;;;4.97;3.75;;;;;;;9.26;70.58;101503.77;1766312;79;21186;-72
2021/04/16 05:10:29;;;;;;;6.10;3.72;;;;;;;9.30;70.07;101511.08;1773636;79;21444;-70
2021/04/16 05:13:02;;;;;;;5.55;3.90;;;;;;;9.26;69.96;101504.30;1766133;80;21922;-69
2021/04/16 05:15:36;;;;;;;4.58;3.70;;;;;;;9.20;69.80;101504.70;1782537;79;21168;-70
2021/04/16 05:18:08;;;;;;;7.03;3.70;;;;;;;9.21;70.05;101496.69;1780049;80;21500;-70
2021/04/16 05:20:44;;;;;;;8.05;4.40;;;;;;;9.27;69.96;101508.23;1773568;79;21194;-69
2021/04/16 05:23:17;;;;;;;7.78;4.53;;;;;;;9.24;69.85;101510.06;1754636;80;21953;-72
2021/04/16 05:25:50;;;;;;;5.78;4.30;;;;;;;9.18;69.70;101512.38;1777914;79;21444;-71
2021/04/16 05:28:23;;;;;;;5.25;3.17;;;;;;;9.08;69.82;101510.70;1787989;79;21395;-70
2021/04/16 05:30:56;;;;;;;23.20;4.15;;;;;;;9.00;69.96;101512.38;1762869;80;21309;-71
2021/04/16 05:33:29;;;;;;;20.77;4.72;;;;;;;8.92;70.49;101508.53;1795894;79;21735;-74
2021/04/16 05:36:02;;;;;;;19.05;4.20;;;;;;;8.92;70.49;101508.53;1790801;79;21312;-73
2021/04/16 05:38:48;;;;;;;19.40;5.70;;;;;;;9.03;70.86;101509.16;1795493;79;21209;-73
2021/04/16 05:41:30;;;;;;;39.75;23.52;;;;;;;9.11;70.77;101507.46;1766696;79;21334;-75
2021/04/16 05:44:04;;;;;;;20.77;9.15;;;;;;;9.15;70.62;101507.31;1771229;79;21395;-73
2021/04/16 05:46:38;;;;;;;9.55;4.45;;;;;;;9.16;70.43;101516.45;1778909;79;21787;-74
2021/04/16 05:49:24;;;;;;;6.78;2.65;;;;;;;9.13;70.34;101516.38;1777328;79;21337;-74
2021/04/16 05:51:55;;;;;;;6.08;2.37;;;;;;;9.13;69.94;101513.61;1776188;77;22010;-75
2021/04/16 05:54:30;;;;;;;4.35;2.47;;;;;;;9.23;69.25;101518.63;1813101;78;21672;-72
2021/04/16 05:57:08;;;;;;;4.87;2.35;;;;;;;9.41;69.29;101511.66;1776125;79;21190;-74
2021/04/16 05:59:45;;;;;;;3.15;1.87;;;;;;;9.59;69.05;101515.80;1777611;79;21396;-74
2021/04/16 06:02:36;;;;;;;5.22;1.85;;;;;;;9.63;68.26;101523.44;1820658;78;21321;-76
2021/04/16 06:05:13;;;;;;;5.55;2.33;;;;;;;9.61;68.48;101518.64;1782522;79;21663;-74
2021/04/16 06:07:46;;;;;;;6.22;1.95;;;;;;;9.71;68.65;101523.62;1751047;79;21368;-76
2021/04/16 06:10:42;;;;;;;3.70;2.20;;;;;;;9.78;68.46;101511.92;1783660;79;21272;-71
2021/04/16 06:13:17;;;;;;;8.78;2.67;;;;;;;9.90;68.45;101504.50;1808667;78;21221;-76
2021/04/16 06:15:52;;;;;;;5.22;2.65;;;;;;;10.12;67.62;101502.88;1812349;78;21269;-75
2021/04/16 06:18:25;;;;;;;7.75;2.90;;;;;;;10.37;67.23;101504.39;1806110;78;21732;-73
2021/04/16 06:20:59;;;;;;;8.48;3.37;;;;;;;10.56;66.43;101512.92;1808507;78;21309;-77
2021/04/16 06:26:44;;;;;;;11.33;3.33;;;;;;;10.71;66.04;101527.72;1732081;79;21193;-77
2021/04/16 06:29:18;;;;;;;6.85;3.83;;;;;;;10.65;65.85;101531.45;1811329;78;21368;-75
2021/04/16 06:31:57;;;;;;;4.10;2.62;;;;;;;10.55;66.02;101533.45;1803636;78;21325;-74
2021/04/16 06:34:49;;;;;;;5.40;2.70;;;;;;;10.45;65.79;101538.73;1707182;82;21320;-72
2021/04/16 06:37:21;;;;;;;3.20;1.95;;;;;;;10.38;65.92;101544.94;1723778;82;21840;-75
2021/04/16 06:39:54;;;;;;;3.03;2.17;;;;;;;10.49;66.10;101542.73;1728240;81;21417;-74
2021/04/16 06:42:49;;;;;;;7.45;1.98;;;;;;;10.77;66.10;101537.30;1726786;82;21705;-76
2021/04/16 06:45:34;;;;;;;7.87;1.80;;;;;;;11.13;65.26;101538.44;1699488;82;21253;-71
2021/04/16 06:48:09;;;;;;;;;;;;;;;11.66;64.57;101533.53;1726370;82;21470;-78
2021/04/16 06:50:45;;;;;;;4.58;1.50;;;;;;;12.00;62.90;101533.95;1706574;83;20249;-76
2021/04/16 06:53:23;;;;;;;;;;;;;;;12.27;62.32;101532.22;1755648;81;21233;-73
2021/04/16 06:56:09;;;;;;;2.02;1.27;;;;;;;12.50;61.34;101532.61;1745393;81;20548;-72
2021/04/16 06:58:59;;;;;;;4.45;1.45;;;;;;;12.48;60.67;101530.64;1699828;83;21378;-72
2021/04/16 07:02:04;;;;;;;7.40;4.58;;;;;;;12.42;60.13;101540.00;1684941;83;21218;-74
2021/04/16 07:04:47;;;;;;;7.08;4.10;;;;;;;12.30;59.92;101545.63;1698472;82;21254;-75
2021/04/16 07:07:39;;;;;;;12.58;7.55;;;;;;;11.95;60.06;101553.33;1680066;84;21195;-75
2021/04/16 07:10:39;;;;;;;15.40;5.67;;;;;;;11.66;60.91;101546.05;1692347;84;21265;-75
2021/04/16 07:13:24;;;;;;;10.53;4.75;;;;;;;11.51;62.11;101549.88;1746123;79;21269;-76
2021/04/16 07:16:01;;;;;;;9.75;3.42;;;;;;;11.48;62.63;101548.97;1764384;80;21331;-76
2021/04/16 07:18:41;;;;;;;10.00;3.22;;;;;;;11.51;62.77;101548.49;1764555;79;21258;-78
2021/04/16 07:21:17;;;;;;;7.20;3.37;;;;;;;11.46;62.57;101544.20;1767135;79;21320;-76
2021/04/16 07:24:00;;;;;;;19.02;4.47;;;;;;;11.40;62.54;101545.19;1787476;80;21329;-75
2021/04/16 07:26:43;;;;;;;12.07;5.87;;;;;;;11.31;62.49;101543.86;1789690;79;21906;-75
2021/04/16 07:29:46;;;;;;;4.03;2.52;;;;;;;11.33;62.98;101558.38;1782930;79;21395;-75
2021/04/16 07:32:49;;;;;;;6.70;2.62;;;;;;;11.43;61.77;101561.36;1787566;79;21707;-77
2021/04/16 07:35:34;;;;;;;5.67;2.65;;;;;;;11.50;61.72;101558.46;1797166;79;21293;-73
2021/04/16 07:38:17;;;;;;;3.17;2.00;;;;;;;11.49;61.61;101563.73;1800871;78;21211;-73
2021/04/16 07:40:50;;;;;;;4.55;2.62;;;;;;;11.48;61.72;101558.70;1806629;78;21878;-73
2021/04/16 07:43:47;;;;;;;2.67;2.10;;;;;;;11.48;61.81;101561.48;1805568;78;21361;-73
2021/04/16 07:46:30;;;;;;;6.47;2.50;;;;;;;11.52;62.20;101564.08;1799669;79;21308;-77
2021/04/16 07:49:23;;;;;;;5.15;2.45;;;;;;;11.59;61.67;101563.42;1805109;78;21179;-76
2021/04/16 07:52:00;;;;;;;5.97;2.25;;;;;;;11.66;61.20;101551.61;1803208;78;21834;-76
2021/04/16 07:54:35;;;;;;;3.95;1.98;;;;;;;11.78;61.28;101549.64;1809594;78;21364;-74
2021/04/16 07:57:21;;;;;;;2.33;1.70;;;;;;;12.00;60.62;101552.04;1797114;78;21902;-74
2021/04/16 08:00:14;;;;;;;4.95;2.40;;;;;;;12.21;60.44;101548.53;1801188;78;21377;-73
2021/04/16 08:03:07;;;;;;;3.47;2.42;;;;;;;12.38;59.99;101549.41;1799918;78;21802;-74
2021/04/16 08:05:57;;;;;;;5.45;2.83;;;;;;;12.47;60.20;101545.09;1807461;78;21296;-75
2021/04/16 08:08:34;;;;;;;6.25;2.20;;;;;;;12.59;59.41;101546.44;1795466;78;21169;-70
2021/04/16 08:11:28;;;;;;;4.70;2.50;;;;;;;12.74;59.18;101541.09;1796566;79;21191;-73
2021/04/16 08:14:13;;;;;;;7.45;3.05;;;;;;;12.85;58.90;101547.97;1799509;78;22464;-72
2021/04/16 08:16:59;;;;;;;6.47;2.55;;;;;;;12.87;58.28;101547.18;1793285;78;21194;-74
2021/04/16 08:19:40;;;;;;;6.10;3.53;;;;;;;12.83;57.87;101543.77;1807078;78;21321;-75
2021/04/16 08:22:34;;;;;;;4.90;2.22;;;;;;;12.80;57.77;101549.84;1808093;78;21171;-72
2021/04/16 08:25:19;;;;;;;6.75;4.65;;;;;;;12.76;57.27;101559.80;1800112;78;21237;-73
2021/04/16 08:28:03;;;;;;;10.63;2.80;;;;;;;12.68;57.32;101558.30;1778596;78;21209;-68
2021/04/16 08:30:52;;;;;;;5.15;2.60;;;;;;;12.61;57.01;101549.27;1777697;79;21816;-76
2021/04/16 08:33:50;;;;;;;2.75;2.30;;;;;;;12.54;57.02;101551.34;1792481;80;21275;-74
2021/04/16 08:36:39;;;;;;;15.18;4.30;;;;;;;12.44;57.05;101560.08;1787679;80;21315;-75
2021/04/16 08:39:41;;;;;;;6.08;2.92;;;;;;;12.37;57.27;101552.44;1804055;79;21324;-75
2021/04/16 08:42:34;;;;;;;9.68;3.25;;;;;;;12.43;57.72;101552.29;1763712;79;21375;-78
2021/04/16 08:45:17;;;;;;;9.68;3.12;;;;;;;12.67;58.04;101545.47;1781515;80;21862;-77
2021/04/16 08:47:57;;;;;;;7.80;3.30;;;;;;;12.92;57.88;101545.87;1792145;78;22711;-76
2021/04/16 08:50:36;;;;;;;9.35;3.35;;;;;;;13.07;57.10;101545.30;1788520;79;21345;-78
2021/04/16 08:53:08;;;;;;;7.95;3.40;;;;;;;13.15;56.77;101557.41;1770394;78;21372;-73
2021/04/16 08:55:52;;;;;;;10.58;4.00;;;;;;;13.16;56.17;101554.36;1774074;79;21336;-70
2021/04/16 08:58:35;;;;;;;11.25;3.05;;;;;;;13.13;55.81;101551.21;1784630;79;21372;-74
2021/04/16 09:01:18;;;;;;;5.50;2.95;;;;;;;13.11;55.28;101555.68;1769491;79;21846;-72
2021/04/16 09:03:56;;;;;;;5.67;3.20;;;;;;;13.09;55.28;101553.67;1794463;80;21237;-71
2021/04/16 09:06:36;;;;;;;8.70;3.87;;;;;;;13.11;55.21;101545.92;1766754;79;21439;-71
2021/04/16 09:09:15;;;;;;;7.80;3.60;;;;;;;13.15;55.49;101546.25;1788753;79;21371;-72
2021/04/16 09:11:56;;;;;;;9.00;5.08;;;;;;;13.24;55.24;101550.27;1794924;80;21275;-72
2021/04/16 09:14:35;;;;;;;8.08;5.83;;;;;;;13.32;54.83;101545.09;1746750;80;21355;-71
2021/04/16 09:17:11;;;;;;;3.90;3.05;;;;;;;13.34;54.49;101541.52;1795797;80;21262;-74
2021/04/16 09:19:46;;;;;;;;;;;;;;;13.32;54.00;101537.30;1797980;80;21194;-72
2021/04/16 09:22:42;;;;;;;10.30;2.95;;;;;;;13.33;54.10;101541.77;1791507;80;20289;-73
2021/04/16 09:25:47;;;;;;;5.75;3.02;;;;;;;13.33;54.10;101541.77;1763802;78;21209;-72
2021/04/16 09:28:31;;;;;;;7.17;2.62;;;;;;;13.45;53.94;101538.31;1771943;79;21321;-72
2021/04/16 09:31:27;;;;;;;3.45;2.50;;;;;;;13.57;53.00;101542.64;1760317;79;21822;-70
2021/04/16 09:34:19;;;;;;;6.05;2.52;;;;;;;13.56;52.81;101543.75;1767247;79;21237;-73
2021/04/16 09:37:31;;;;;;;5.58;2.70;;;;;;;13.57;52.64;101540.42;1784260;80;21676;-72
2021/04/16 09:40:30;;;;;;;5.22;2.62;;;;;;;13.58;52.64;101537.34;1770798;79;21748;-72
2021/04/16 09:43:21;;;;;;;3.58;2.55;;;;;;;13.55;51.84;101543.47;1779473;79;21178;-73
2021/04/16 09:45:56;;;;;;;3.83;2.45;;;;;;;13.44;51.67;101543.60;1779534;79;21179;-70
2021/04/16 09:48:51;;;;;;;6.97;3.02;;;;;;;13.32;51.95;101542.31;1789365;80;21155;-72
2021/04/16 09:51:45;;;;;;;3.22;2.70;;;;;;;13.17;52.38;101537.06;1784031;80;21146;-71
2021/04/16 09:54:24;;;;;;;7.30;3.25;;;;;;;13.03;52.79;101534.35;1789403;79;21870;-73
2021/04/16 09:57:08;;;;;;;9.00;3.30;;;;;;;12.92;53.18;101538.05;1780335;79;21197;-72
2021/04/16 09:59:44;;;;;;;5.62;3.72;;;;;;;12.90;53.69;101544.44;1766782;79;21150;-72
2021/04/16 10:02:29;;;;;;;11.12;3.12;;;;;;;12.89;53.31;101542.75;1770242;80;21405;-74
2021/04/16 10:05:19;;;;;;;3.42;2.62;;;;;;;12.90;52.85;101542.48;1789851;79;21361;-73
2021/04/16 10:07:57;;;;;;;4.70;2.98;;;;;;;12.90;53.15;101543.87;1791207;79;21845;-73
2021/04/16 10:10:42;;;;;;;6.58;2.50;;;;;;;12.82;53.41;101537.34;1803803;79;21521;-75
2021/04/16 10:13:30;;;;;;;4.08;2.60;;;;;;;12.71;53.39;101541.05;1772954;79;21423;-65
2021/04/16 10:16:08;;;;;;;7.22;3.00;;;;;;;12.64;53.48;101549.28;1768211;79;21360;-69
2021/04/16 10:18:42;;;;;;;9.85;3.92;;;;;;;12.58;53.81;101541.94;1781585;80;21160;-69
2021/04/16 10:21:22;;;;;;;8.18;3.00;;;;;;;12.55;53.89;101550.81;1784324;79;21310;-65
2021/04/16 10:40:00;;;;;;;4.42;2.62;;;;;;;12.58;54.23;101535.83;1771097;80;21274;-69
2021/04/16 12:40:27;;;;;;;12.33;2.72;;;;;;;12.25;52.53;101561.41;1698203;82;21356;-72
2021/04/16 12:43:02;;;;;;;15.58;2.60;;;;;;;12.02;53.50;101563.76;1774907;81;21244;-75
2021/04/16 12:45:34;;;;;;;12.00;2.67;;;;;;;11.83;54.51;101557.23;1750557;81;21349;-74
2021/04/16 12:48:07;;;;;;;8.73;3.57;;;;;;;11.61;56.11;101561.23;1767537;81;21288;-72
2021/04/16 12:50:40;;;;;;;7.72;2.83;;;;;;;11.45;57.14;101568.94;1767818;81;21344;-75
2021/04/16 12:53:13;;;;;;;19.25;9.08;;;;;;;11.32;58.05;101562.78;1767854;81;21304;-73
2021/04/16 12:55:47;;;;;;;7.03;3.35;;;;;;;11.20;59.13;101544.71;1767746;81;21308;-74
2021/04/16 12:58:28;;;;;;;7.00;3.65;;;;;;;11.11;60.02;101548.11;1767828;81;21312;-76
2021/04/16 13:01:02;;;;;;;7.00;3.62;;;;;;;11.05;60.92;101541.60;1763843;81;21300;-74
2021/04/16 13:03:42;;;;;;;11.20;4.10;;;;;;;11.07;62.21;101538.59;1766029;81;21324;-74
2021/04/16 13:06:39;;;;;;;11.28;4.17;;;;;;;11.18;62.01;101548.86;1766094;81;21292;-73
2021/04/16 13:09:13;;;;;;;9.55;4.00;;;;;;;11.32;62.15;101543.33;1763116;81;21392;-71
2021/04/16 13:11:50;;;;;;;9.55;3.12;;;;;;;11.43;61.44;101544.67;1766276;81;21260;-71
2021/04/16 13:14:23;;;;;;;6.28;3.42;;;;;;;11.52;61.20;101547.92;1766328;81;21399;-72
2021/04/16 13:16:55;;;;;;;7.28;4.12;;;;;;;11.57;60.98;101549.43;1766203;81;21285;-73
2021/04/16 13:19:36;;;;;;;10.70;3.67;;;;;;;11.63;60.92;101547.09;1758550;81;21858;-74
2021/04/16 13:22:11;;;;;;;11.68;4.25;;;;;;;11.66;60.38;101547.44;1725746;83;21194;-72
2021/04/16 13:24:44;;;;;;;8.08;5.00;;;;;;;11.69;60.52;101539.97;1749181;82;21320;-74
2021/04/16 13:27:21;;;;;;;12.82;5.40;;;;;;;11.73;60.23;101556.48;1744367;82;21384;-72
2021/04/16 13:29:53;;;;;;;8.28;4.78;;;;;;;11.74;60.69;101577.64;1718444;83;22451;-74
2021/04/16 13:32:30;;;;;;;11.97;6.17;;;;;;;11.74;61.01;101591.55;1737302;82;21323;-73
2021/04/16 13:35:03;;;;;;;11.38;4.17;;;;;;;11.66;61.63;101611.95;1708109;83;21304;-73
2021/04/16 13:37:36;;;;;;;8.70;3.53;;;;;;;11.51;62.39;101615.23;1737566;82;22037;-70
2021/04/16 13:40:10;;;;;;;10.85;4.05;;;;;;;11.27;63.26;101606.62;1737363;82;21184;-72
2021/04/16 13:42:43;;;;;;;6.75;3.22;;;;;;;11.08;64.89;101596.69;1737133;82;21315;-72
2021/04/16 13:45:16;;;;;;;10.88;4.08;;;;;;;10.89;65.85;101589.55;1737099;82;21315;-72
2021/04/16 13:47:49;;;;;;;7.10;4.62;;;;;;;10.76;66.30;101591.17;1737334;82;21307;-72
2021/04/16 13:50:22;;;;;;;7.00;4.30;;;;;;;10.65;65.62;101585.05;1737307;82;21303;-72
2021/04/16 13:52:58;;;;;;;7.35;5.10;;;;;;;10.51;65.86;101583.59;1737625;82;21227;-74
2021/04/16 13:55:31;;;;;;;11.78;6.70;;;;;;;10.43;66.27;101583.94;1737406;82;21284;-73
2021/04/16 13:58:03;;;;;;;9.38;4.62;;;;;;;10.39;66.68;101589.66;1737282;82;21159;-72
2021/04/16 14:00:46;;;;;;;7.50;3.85;;;;;;;10.33;66.50;101584.22;1737205;82;21773;-70
2021/04/16 14:06:19;;;;;;;5.78;4.12;;;;;;;10.26;66.38;101591.25;1707742;83;21314;-72
2021/04/16 14:09:11;;;;;;;8.05;5.05;;;;;;;10.31;66.80;101581.67;1737060;82;21307;-73
2021/04/16 14:11:58;;;;;;;8.33;4.83;;;;;;;10.32;66.92;101583.36;1737621;82;21167;-76
2021/04/16 14:14:27;;;;;;;6.25;4.22;;;;;;;10.32;66.42;101571.40;1720472;82;21378;-73
2021/04/16 14:17:10;;;;;;;6.78;4.60;;;;;;;10.29;66.04;101564.95;1739197;82;21186;-75
2021/04/16 14:20:04;;;;;;;7.60;4.97;;;;;;;10.28;66.10;101572.98;1738386;82;21226;-72
2021/04/16 14:22:46;;;;;;;7.37;4.97;;;;;;;10.18;66.35;101562.45;1763549;79;21387;-75
2021/04/16 14:25:27;;;;;;;8.90;4.60;;;;;;;10.09;66.64;101568.58;1776169;79;21368;-73
2021/04/16 14:28:00;;;;;;;8.33;5.22;;;;;;;10.05;67.29;101566.81;1789083;79;21177;-73
2021/04/16 14:30:34;;;;;;;8.47;5.47;;;;;;;10.07;67.49;101566.03;1790918;79;21366;-75
2021/04/16 14:33:13;;;;;;;14.55;5.53;;;;;;;10.09;66.98;101562.47;1765848;79;22242;-74
2021/04/16 14:35:48;;;;;;;11.80;6.00;;;;;;;10.07;66.99;101554.94;1766669;81;21826;-71
2021/04/16 14:38:21;;;;;;;11.83;6.33;;;;;;;10.09;66.98;101556.09;1790920;79;21209;-72